Time;durP1;ratioP1;P1;durP2;ratioP2;P2;SDS_P1;SDS_P2;PMS_P1;PMS_P2;Temp;Humidity;BMP_temperature;BMP_pressure;BME280_temperature;BME280_humidity;BME280_pressure;Samples;Min_cycle;Max_cycle;Signal;HPM_P1;HPM_P2
2022/01/10 00:00:58;;;;;;;29.67;20.80;;;1.40;99.90;;;;;;5094344;28;20173;-82
2022/01/10 00:03:24;;;;;;;28.93;20.10;;;1.40;99.90;;;;;;5095073;28;20187;-83
2022/01/10 00:05:50;;;;;;;25.27;19.97;;;1.40;99.90;;;;;;5087481;28;20267;-83
2022/01/10 00:08:16;;;;;;;29.67;20.27;;;1.40;99.90;;;;;;5102982;28;20176;-84
2022/01/10 00:10:43;;;;;;;27.27;20.43;;;1.40;99.90;;;;;;5097317;28;20225;-83
2022/01/10 00:13:09;;;;;;;31.33;21.43;;;1.50;99.90;;;;;;5097923;28;20219;-82
2022/01/10 00:15:35;;;;;;;28.03;20.53;;;1.50;99.90;;;;;;5094614;28;20171;-83
2022/01/10 00:18:01;;;;;;;27.17;20.13;;;1.50;99.90;;;;;;5095430;28;20211;-84
2022/01/10 00:20:26;;;;;;;31.77;21.37;;;1.50;99.90;;;;;;5099639;28;20533;-82
2022/01/10 00:22:52;;;;;;;29.30;21.23;;;1.50;99.90;;;;;;5079881;28;20177;-83
2022/01/10 00:25:21;;;;;;;27.20;20.47;;;1.40;99.90;;;;;;5095690;28;20183;-83
2022/01/10 00:27:49;;;;;;;26.50;20.03;;;1.40;99.90;;;;;;5094545;28;20176;-83
2022/01/10 00:30:15;;;;;;;28.50;20.30;;;1.40;99.90;;;;;;5094235;28;20169;-83
2022/01/10 00:32:43;;;;;;;26.50;20.43;;;1.40;99.90;;;;;;5094012;28;20172;-84
2022/01/10 00:35:10;;;;;;;26.03;20.37;;;1.40;99.90;;;;;;5094505;28;20225;-83
2022/01/10 00:37:36;;;;;;;30.50;20.33;;;1.40;99.90;;;;;;5094327;28;20201;-84
2022/01/10 00:40:04;;;;;;;28.20;20.43;;;1.40;99.90;;;;;;5094617;28;20173;-84
2022/01/10 00:42:31;;;;;;;28.83;20.13;;;1.30;99.90;;;;;;5094708;28;20174;-84
2022/01/10 00:45:02;;;;;;;28.77;20.37;;;1.30;99.90;;;;;;5094650;28;20201;-84
2022/01/10 00:47:28;;;;;;;26.13;20.40;;;1.40;99.90;;;;;;5076499;28;20219;-84
2022/01/10 00:49:54;;;;;;;26.23;19.63;;;1.40;99.90;;;;;;5076383;28;20177;-83
2022/01/10 00:52:21;;;;;;;26.47;19.73;;;1.40;99.90;;;;;;5093570;28;20722;-83
2022/01/10 00:54:47;;;;;;;28.03;20.70;;;1.50;99.90;;;;;;5095540;28;20170;-83
2022/01/10 00:57:13;;;;;;;29.50;20.67;;;1.60;99.90;;;;;;5097232;28;20579;-83
2022/01/10 00:59:39;;;;;;;27.97;20.13;;;1.50;99.90;;;;;;5096642;28;20188;-83
2022/01/10 01:02:04;;;;;;;26.23;19.60;;;1.50;99.90;;;;;;5094775;28;20200;-83
2022/01/10 01:04:30;;;;;;;26.87;19.37;;;1.40;99.90;;;;;;5077911;28;20183;-83
2022/01/10 01:06:56;;;;;;;27.03;19.57;;;1.40;99.90;;;;;;5095724;28;20182;-83
2022/01/10 01:09:27;;;;;;;24.17;19.13;;;1.40;99.90;;;;;;5075361;28;20532;-83
2022/01/10 01:14:51;;;;;;;26.23;21.07;;;1.50;99.90;;;;;;5093387;28;20168;-84
2022/01/10 01:17:57;;;;;;;25.60;19.80;;;1.50;99.90;;;;;;5093025;28;20571;-83
2022/01/10 01:20:29;;;;;;;27.87;20.13;;;1.50;99.90;;;;;;5092341;28;20234;-83
2022/01/10 01:25:39;;;;;;;26.37;19.70;;;1.50;99.90;;;;;;5093040;28;20168;-84
2022/01/10 01:28:05;;;;;;;27.43;20.93;;;1.50;99.90;;;;;;5092829;28;20169;-84
2022/01/10 01:30:31;;;;;;;29.47;19.90;;;1.50;99.90;;;;;;5074725;28;20582;-84
2022/01/10 01:32:58;;;;;;;31.63;20.27;;;1.60;99.90;;;;;;5092782;28;20174;-84
2022/01/10 01:35:25;;;;;;;25.03;19.57;;;1.60;99.90;;;;;;5092743;28;20278;-83
2022/01/10 01:37:51;;;;;;;28.33;20.30;;;1.50;99.90;;;;;;5074522;28;20552;-83
2022/01/10 01:40:19;;;;;;;27.40;21.33;;;1.60;99.90;;;;;;5092699;28;20176;-82
2022/01/10 01:42:45;;;;;;;27.83;20.27;;;1.60;99.90;;;;;;5094249;28;20168;-82
2022/01/10 01:45:12;;;;;;;26.33;19.20;;;1.50;99.90;;;;;;5096750;28;20180;-83
2022/01/10 01:47:40;;;;;;;27.93;20.60;;;1.50;99.90;;;;;;5096777;28;20201;-84
2022/01/10 01:50:08;;;;;;;26.13;19.87;;;1.40;99.90;;;;;;5078534;28;20235;-83
2022/01/10 01:52:34;;;;;;;25.47;19.33;;;1.40;99.90;;;;;;5096546;28;20181;-84
2022/01/10 01:55:00;;;;;;;27.07;20.20;;;1.40;99.90;;;;;;5096592;28;20173;-83
2022/01/10 01:57:27;;;;;;;27.17;19.23;;;1.50;99.90;;;;;;5096482;28;20238;-84
2022/01/10 01:59:53;;;;;;;26.50;20.37;;;1.50;99.90;;;;;;5096860;28;20506;-83
2022/01/10 02:02:19;;;;;;;29.57;20.20;;;1.50;99.90;;;;;;5097093;28;20628;-84
2022/01/10 02:04:45;;;;;;;28.50;21.17;;;1.40;99.90;;;;;;5101231;28;20177;-82
2022/01/10 02:07:11;;;;;;;26.73;19.70;;;1.40;99.90;;;;;;5098352;28;20248;-82
2022/01/10 02:09:37;;;;;;;24.00;18.97;;;1.40;99.90;;;;;;5102367;28;20176;-83
2022/01/10 02:12:03;;;;;;;26.20;19.33;;;1.50;99.90;;;;;;5096609;28;20177;-82
2022/01/10 02:14:29;;;;;;;27.80;20.40;;;1.40;99.90;;;;;;5096084;28;20172;-82
2022/01/10 02:16:56;;;;;;;25.50;19.07;;;1.40;99.90;;;;;;5096240;28;20277;-82
2022/01/10 02:19:23;;;;;;;28.07;20.13;;;1.40;99.90;;;;;;5096084;28;20561;-82
2022/01/10 02:21:49;;;;;;;25.37;19.10;;;1.40;99.90;;;;;;5095866;28;20261;-83
2022/01/10 02:24:15;;;;;;;27.57;19.70;;;1.40;99.90;;;;;;5096018;28;20623;-83
2022/01/10 02:26:44;;;;;;;28.00;20.03;;;1.40;99.90;;;;;;5096014;28;20685;-83
2022/01/10 02:29:11;;;;;;;24.23;19.33;;;1.60;99.90;;;;;;5097674;28;20173;-83
2022/01/10 02:31:39;;;;;;;27.93;19.40;;;1.60;99.90;;;;;;5095850;28;20215;-83
2022/01/10 02:34:05;;;;;;;24.40;19.23;;;1.50;99.90;;;;;;5095653;28;20172;-83
2022/01/10 02:36:31;;;;;;;24.23;19.53;;;1.50;99.90;;;;;;5095646;28;20225;-84
2022/01/10 02:39:08;;;;;;;27.80;20.07;;;1.50;99.90;;;;;;5095673;28;20264;-84
2022/01/10 02:41:36;;;;;;;25.87;19.30;;;1.40;99.90;;;;;;5095914;28;20169;-83
2022/01/10 02:44:05;;;;;;;24.43;19.33;;;1.40;99.90;;;;;;5095758;28;20180;-84
2022/01/10 02:46:35;;;;;;;26.83;19.60;;;1.40;99.90;;;;;;5095548;28;20176;-83
2022/01/10 02:49:07;;;;;;;28.17;19.47;;;1.40;99.90;;;;;;5095491;28;20206;-82
2022/01/10 02:51:32;;;;;;;26.40;20.17;;;1.60;99.90;;;;;;5077394;28;20541;-82
2022/01/10 02:53:58;;;;;;;27.37;19.87;;;1.40;99.90;;;;;;5094288;28;20168;-83
2022/01/10 02:56:24;;;;;;;25.40;20.23;;;1.40;99.90;;;;;;5095426;28;20167;-83
2022/01/10 02:58:50;;;;;;;27.17;20.27;;;1.40;99.90;;;;;;5095143;28;20569;-82
2022/01/10 03:01:15;;;;;;;27.70;20.27;;;1.40;99.90;;;;;;5103674;28;20180;-82
2022/01/10 03:03:41;;;;;;;26.50;19.90;;;1.40;99.90;;;;;;5102006;28;20187;-83
2022/01/10 03:06:07;;;;;;;26.37;20.17;;;1.40;99.90;;;;;;5095748;28;20172;-83
2022/01/10 03:08:33;;;;;;;27.60;19.60;;;1.30;99.90;;;;;;5096690;28;20218;-83
2022/01/10 03:10:59;;;;;;;26.17;19.27;;;1.30;99.90;;;;;;5095447;28;20172;-83
2022/01/10 03:13:25;;;;;;;28.13;19.97;;;1.30;99.90;;;;;;5096628;28;20229;-83
2022/01/10 03:15:51;;;;;;;27.27;20.40;;;1.30;99.90;;;;;;5098510;28;20177;-82
2022/01/10 03:18:17;;;;;;;29.47;20.77;;;1.30;99.90;;;;;;5100612;28;20208;-83
2022/01/10 03:20:42;;;;;;;28.57;20.27;;;1.30;99.90;;;;;;5095872;28;20180;-83
2022/01/10 03:23:09;;;;;;;28.30;20.67;;;1.30;99.90;;;;;;5104767;28;20179;-83
2022/01/10 03:25:35;;;;;;;28.63;20.67;;;1.40;99.90;;;;;;5095121;28;20165;-84
2022/01/10 03:28:01;;;;;;;27.03;20.87;;;1.30;99.90;;;;;;5094668;28;20204;-83
2022/01/10 03:30:28;;;;;;;27.13;20.43;;;1.30;99.90;;;;;;5076577;28;20189;-84
2022/01/10 03:32:56;;;;;;;27.43;20.40;;;1.30;99.90;;;;;;5096986;28;20168;-83
2022/01/10 03:35:22;;;;;;;25.40;20.37;;;1.30;99.90;;;;;;5094517;28;20230;-83
2022/01/10 03:37:48;;;;;;;30.97;21.47;;;1.30;99.90;;;;;;5094506;28;20199;-83
2022/01/10 03:40:14;;;;;;;29.70;21.57;;;1.20;99.90;;;;;;5094501;28;20511;-83
2022/01/10 03:42:39;;;;;;;29.53;21.37;;;1.20;99.90;;;;;;5076269;28;20184;-83
2022/01/10 03:45:07;;;;;;;27.73;21.40;;;1.20;99.90;;;;;;5094432;28;20164;-82
2022/01/10 03:47:32;;;;;;;29.70;21.87;;;1.20;99.90;;;;;;5094405;28;20169;-83
2022/01/10 03:49:58;;;;;;;29.20;21.70;;;1.20;99.90;;;;;;5094283;28;20295;-83
2022/01/10 03:52:25;;;;;;;29.63;21.80;;;1.20;99.90;;;;;;5076020;28;20180;-83
2022/01/10 03:54:51;;;;;;;27.27;20.87;;;1.30;99.90;;;;;;5094278;28;20175;-83
2022/01/10 03:57:17;;;;;;;29.27;22.13;;;1.30;99.90;;;;;;5094240;28;20183;-83
2022/01/10 03:59:42;;;;;;;27.60;21.13;;;1.30;99.90;;;;;;5095715;28;20624;-81
2022/01/10 04:02:08;;;;;;;32.67;22.83;;;1.30;99.90;;;;;;5079778;28;20193;-83
2022/01/10 04:04:36;;;;;;;30.17;22.03;;;1.30;99.90;;;;;;5098150;28;20180;-82
2022/01/10 04:07:03;;;;;;;29.83;21.17;;;1.20;99.90;;;;;;5097688;28;20252;-83
2022/01/10 04:09:29;;;;;;;28.87;21.60;;;1.30;99.90;;;;;;5094112;28;20174;-83
2022/01/10 04:11:55;;;;;;;30.63;22.17;;;1.30;99.90;;;;;;5096547;28;20208;-83
2022/01/10 04:14:21;;;;;;;34.07;24.47;;;1.20;99.90;;;;;;5094197;28;20263;-83
2022/01/10 04:16:47;;;;;;;30.33;22.67;;;1.20;99.90;;;;;;5093799;28;20176;-82
2022/01/10 04:19:13;;;;;;;28.70;22.07;;;1.20;99.90;;;;;;5093640;28;20209;-82
2022/01/10 04:21:38;;;;;;;31.00;21.97;;;1.20;99.90;;;;;;5093802;28;20221;-83
2022/01/10 04:24:04;;;;;;;29.30;21.17;;;1.30;99.90;;;;;;5093795;28;20646;-83
2022/01/10 04:26:30;;;;;;;29.57;22.33;;;1.30;99.90;;;;;;5093622;28;20172;-83
2022/01/10 04:28:56;;;;;;;29.13;21.63;;;1.40;99.90;;;;;;5093613;28;20179;-82
2022/01/10 04:31:21;;;;;;;29.40;21.37;;;1.40;99.90;;;;;;5075542;28;20218;-83
2022/01/10 04:33:47;;;;;;;30.23;22.57;;;1.40;99.90;;;;;;5093386;28;20201;-83
2022/01/10 04:36:13;;;;;;;32.17;21.97;;;1.40;99.90;;;;;;5093274;28;20690;-83
2022/01/10 04:38:42;;;;;;;27.70;21.03;;;1.40;99.90;;;;;;5093556;28;20731;-83
2022/01/10 04:41:09;;;;;;;30.67;21.37;;;1.30;99.90;;;;;;5093534;28;20193;-83
2022/01/10 04:43:36;;;;;;;27.83;20.33;;;1.20;99.90;;;;;;5093465;28;20176;-82
2022/01/10 04:46:02;;;;;;;31.13;22.13;;;1.20;99.90;;;;;;5093460;28;20204;-83
2022/01/10 04:48:28;;;;;;;25.80;20.00;;;1.20;99.90;;;;;;5093484;28;20636;-83
2022/01/10 04:51:15;;;;;;;30.67;21.97;;;1.20;99.90;;;;;;5093873;28;20618;-82
2022/01/10 04:53:47;;;;;;;31.10;22.13;;;1.20;99.90;;;;;;5104792;28;20165;-82
2022/01/10 04:56:14;;;;;;;28.77;22.17;;;1.30;99.90;;;;;;5116724;28;20186;-83
2022/01/10 04:58:42;;;;;;;27.57;21.07;;;1.40;99.90;;;;;;5094323;28;20207;-83
2022/01/10 05:01:08;;;;;;;30.10;21.03;;;1.30;99.90;;;;;;5094304;28;20182;-83
2022/01/10 05:03:34;;;;;;;28.37;20.17;;;1.30;99.90;;;;;;5075599;28;20313;-83
2022/01/10 05:06:00;;;;;;;28.93;20.80;;;1.30;99.90;;;;;;5093355;28;20670;-83
2022/01/10 05:08:26;;;;;;;26.07;20.37;;;1.30;99.90;;;;;;5093507;28;20173;-83
2022/01/10 05:10:53;;;;;;;24.33;19.20;;;1.30;99.90;;;;;;5093133;28;20593;-83
2022/01/10 05:13:20;;;;;;;30.63;20.50;;;1.30;99.90;;;;;;5093095;28;20261;-82
2022/01/10 05:15:47;;;;;;;27.30;18.60;;;1.30;99.90;;;;;;5074842;28;20225;-83
2022/01/10 05:18:13;;;;;;;27.23;19.10;;;1.30;99.90;;;;;;5095466;28;20202;-83
2022/01/10 05:20:39;;;;;;;24.50;18.33;;;1.20;99.90;;;;;;5097276;28;20211;-83
2022/01/10 05:23:05;;;;;;;25.63;18.63;;;1.20;99.90;;;;;;5097135;28;20176;-82
2022/01/10 05:25:36;;;;;;;23.87;18.43;;;1.20;99.90;;;;;;5097081;28;20173;-83
2022/01/10 05:28:04;;;;;;;25.97;18.33;;;1.30;99.90;;;;;;5097038;28;20251;-83
2022/01/10 05:30:30;;;;;;;26.63;18.07;;;1.30;99.90;;;;;;5097045;28;20220;-83
2022/01/10 05:32:55;;;;;;;25.80;17.87;;;1.20;99.90;;;;;;5097016;28;20197;-83
2022/01/10 05:35:21;;;;;;;24.40;17.87;;;1.20;99.90;;;;;;5096686;28;20233;-83
2022/01/10 05:37:47;;;;;;;25.63;18.07;;;1.20;99.90;;;;;;5078467;28;20215;-83
2022/01/10 05:40:12;;;;;;;22.67;16.90;;;1.10;99.90;;;;;;5078770;28;20177;-83
2022/01/10 05:42:38;;;;;;;25.47;17.33;;;1.20;99.90;;;;;;5078616;28;20180;-83
2022/01/10 05:45:05;;;;;;;28.37;17.20;;;1.20;99.90;;;;;;5097030;28;20236;-83
2022/01/10 05:47:38;;;;;;;24.27;18.00;;;1.20;99.90;;;;;;5078726;28;20720;-82
2022/01/10 05:50:05;;;;;;;20.40;17.23;;;1.20;99.90;;;;;;5096840;28;20164;-83
2022/01/10 05:52:31;;;;;;;27.10;17.03;;;1.20;99.90;;;;;;5098536;28;20179;-83
2022/01/10 05:54:56;;;;;;;26.93;18.00;;;1.20;99.90;;;;;;5098155;28;20180;-83
2022/01/10 05:57:22;;;;;;;29.40;20.10;;;1.20;99.90;;;;;;5099341;28;20180;-82
2022/01/10 05:59:48;;;;;;;28.10;19.23;;;1.10;99.90;;;;;;5099164;28;20175;-82
2022/01/10 06:02:13;;;;;;;29.40;19.30;;;1.10;99.90;;;;;;5099739;28;20173;-83
2022/01/10 06:04:39;;;;;;;27.43;19.13;;;1.00;99.90;;;;;;5096399;28;20233;-83
2022/01/10 06:07:05;;;;;;;27.13;18.47;;;1.10;99.90;;;;;;5096513;28;20215;-83
2022/01/10 06:09:30;;;;;;;24.57;18.80;;;1.10;99.90;;;;;;5096235;28;20189;-83
2022/01/10 06:11:56;;;;;;;24.10;17.13;;;1.20;99.90;;;;;;5096148;28;20245;-83
2022/01/10 06:14:22;;;;;;;22.47;17.40;;;1.20;99.90;;;;;;5098658;28;20503;-83
2022/01/10 06:16:48;;;;;;;29.63;18.53;;;1.20;99.90;;;;;;5096192;28;20178;-83
2022/01/10 06:19:13;;;;;;;24.77;17.60;;;1.20;99.90;;;;;;5086355;28;20208;-80
2022/01/10 06:21:39;;;;;;;20.10;16.07;;;1.10;99.90;;;;;;5057811;28;20177;-81
2022/01/10 06:24:06;;;;;;;23.27;17.70;;;1.10;99.90;;;;;;5075686;28;20190;-81
2022/01/10 06:26:31;;;;;;;24.53;18.20;;;1.20;99.90;;;;;;5075796;28;20306;-81
2022/01/10 06:28:57;;;;;;;25.80;17.20;;;1.20;99.90;;;;;;5075637;28;20254;-81
2022/01/10 06:31:23;;;;;;;24.43;17.67;;;1.20;99.90;;;;;;5075668;28;20650;-81
2022/01/10 06:33:49;;;;;;;24.00;17.67;;;1.20;99.90;;;;;;5057507;28;20196;-81
2022/01/10 06:36:14;;;;;;;22.93;17.13;;;1.20;99.90;;;;;;5077763;28;20289;-86
2022/01/10 06:38:40;;;;;;;26.63;18.30;;;1.20;99.90;;;;;;5059918;28;20259;-81
2022/01/10 06:41:06;;;;;;;26.13;19.53;;;1.20;99.90;;;;;;5075649;28;20577;-80
2022/01/10 06:43:32;;;;;;;26.10;17.30;;;1.20;99.90;;;;;;5057507;28;20582;-82
2022/01/10 06:45:58;;;;;;;29.17;19.17;;;1.20;99.90;;;;;;5076355;28;20232;-81
2022/01/10 06:48:23;;;;;;;25.10;17.30;;;1.20;99.90;;;;;;5082533;28;20198;-83
2022/01/10 06:50:49;;;;;;;23.27;16.30;;;1.10;99.90;;;;;;5090263;28;20180;-83
2022/01/10 06:53:16;;;;;;;23.40;16.70;;;1.00;99.90;;;;;;5092176;28;20189;-82
2022/01/10 06:55:42;;;;;;;22.43;17.27;;;1.00;99.90;;;;;;5086159;28;20173;-81
2022/01/10 06:58:08;;;;;;;25.43;18.23;;;1.00;99.90;;;;;;5083866;28;20209;-80
2022/01/10 07:00:35;;;;;;;24.00;16.23;;;1.00;99.90;;;;;;5075418;28;20170;-80
2022/01/10 07:03:00;;;;;;;22.77;16.80;;;1.10;99.90;;;;;;5075300;28;20188;-81
2022/01/10 07:05:28;;;;;;;22.13;17.23;;;1.00;99.90;;;;;;5075617;28;20560;-81
2022/01/10 07:07:54;;;;;;;25.00;16.40;;;1.00;99.90;;;;;;5074958;28;20173;-82
2022/01/10 07:10:20;;;;;;;20.80;15.43;;;1.00;99.90;;;;;;5075087;28;20694;-81
2022/01/10 07:12:46;;;;;;;21.80;15.17;;;1.10;99.90;;;;;;5075140;28;20173;-81
2022/01/10 07:15:12;;;;;;;19.40;14.97;;;1.10;99.90;;;;;;5075150;28;20187;-81
2022/01/10 07:17:38;;;;;;;23.77;15.80;;;1.00;99.90;;;;;;5074857;28;20213;-81
2022/01/10 07:20:05;;;;;;;20.27;14.47;;;1.10;99.90;;;;;;5074716;28;20177;-81
2022/01/10 07:22:31;;;;;;;23.07;15.53;;;1.10;99.90;;;;;;5074755;28;20625;-81
2022/01/10 07:24:56;;;;;;;20.57;15.37;;;1.20;99.90;;;;;;5072111;28;20196;-81
2022/01/10 07:27:22;;;;;;;24.53;15.00;;;1.20;99.90;;;;;;5095081;28;20168;-82
2022/01/10 07:29:50;;;;;;;24.13;15.37;;;1.20;99.90;;;;;;5094959;28;20586;-83
2022/01/10 07:32:18;;;;;;;24.70;15.87;;;1.20;99.90;;;;;;5094505;28;20188;-84
2022/01/10 07:34:44;;;;;;;25.27;16.40;;;1.30;99.90;;;;;;5094625;28;20259;-83
2022/01/10 07:37:10;;;;;;;20.57;15.57;;;1.30;99.90;;;;;;5094737;28;20638;-83
2022/01/10 07:39:36;;;;;;;23.97;15.73;;;1.40;99.90;;;;;;5094619;28;20189;-82
2022/01/10 07:42:02;;;;;;;22.00;15.73;;;1.40;99.90;;;;;;5094290;28;20253;-83
2022/01/10 07:44:28;;;;;;;25.63;15.53;;;1.40;99.90;;;;;;5094590;28;20185;-82
2022/01/10 07:46:55;;;;;;;21.63;14.67;;;1.50;99.90;;;;;;5095026;28;20257;-82
2022/01/10 07:49:21;;;;;;;22.63;14.87;;;1.50;99.90;;;;;;5095502;28;20169;-83
2022/01/10 07:51:47;;;;;;;22.23;16.80;;;1.60;99.90;;;;;;5094057;28;20179;-83
2022/01/10 07:54:13;;;;;;;22.47;16.87;;;1.70;99.90;;;;;;5096751;28;20176;-83
2022/01/10 07:56:39;;;;;;;24.23;17.57;;;1.70;99.90;;;;;;5095787;28;20169;-82
2022/01/10 07:59:05;;;;;;;25.20;17.53;;;1.70;99.90;;;;;;5096225;28;20270;-83
2022/01/10 08:01:31;;;;;;;30.00;17.73;;;1.80;99.90;;;;;;5095222;28;20170;-83
2022/01/10 08:03:57;;;;;;;27.70;18.53;;;1.80;99.90;;;;;;5095582;28;20236;-82
2022/01/10 08:06:24;;;;;;;25.63;17.80;;;1.80;99.90;;;;;;5094582;28;20169;-82
2022/01/10 08:08:50;;;;;;;25.57;17.40;;;1.80;99.90;;;;;;5094869;28;20171;-82
2022/01/10 08:11:16;;;;;;;27.33;17.67;;;1.80;99.90;;;;;;5095296;28;20174;-81
2022/01/10 08:13:42;;;;;;;33.30;21.17;;;1.80;99.90;;;;;;5094981;28;20164;-82
2022/01/10 08:16:08;;;;;;;30.03;20.47;;;1.80;99.90;;;;;;5096086;28;20221;-82
2022/01/10 08:18:35;;;;;;;34.97;22.13;;;1.80;99.90;;;;;;5095401;28;20217;-82
2022/01/10 08:21:02;;;;;;;33.90;22.67;;;1.80;99.90;;;;;;5094848;28;20184;-83
2022/01/10 08:23:28;;;;;;;34.37;22.43;;;1.90;99.90;;;;;;5094793;28;20173;-83
2022/01/10 08:25:54;;;;;;;35.73;23.40;;;1.90;99.90;;;;;;5094471;28;20199;-83
2022/01/10 08:28:22;;;;;;;35.27;24.47;;;1.90;99.90;;;;;;5076616;28;20616;-83
2022/01/10 08:30:51;;;;;;;31.83;23.53;;;1.90;99.90;;;;;;5094322;28;20177;-84
2022/01/10 08:33:17;;;;;;;29.23;23.03;;;1.90;99.90;;;;;;5094221;28;20181;-83
2022/01/10 08:35:43;;;;;;;32.83;22.47;;;1.90;99.90;;;;;;5094289;28;20214;-83
2022/01/10 08:38:09;;;;;;;28.23;21.77;;;2.00;99.90;;;;;;5094007;28;20192;-84
2022/01/10 08:40:34;;;;;;;35.50;22.23;;;2.00;99.90;;;;;;5076107;28;20184;-82
2022/01/10 08:43:06;;;;;;;32.53;21.73;;;2.00;99.90;;;;;;5093968;28;20544;-82
2022/01/10 08:45:33;;;;;;;29.37;21.20;;;2.00;99.90;;;;;;5094119;28;20168;-83
2022/01/10 08:47:58;;;;;;;30.50;21.03;;;2.00;99.90;;;;;;5094048;28;20176;-82
2022/01/10 08:50:26;;;;;;;30.10;20.73;;;2.00;99.90;;;;;;5094067;28;20174;-83
2022/01/10 08:52:52;;;;;;;30.53;22.77;;;2.00;99.90;;;;;;5075269;28;20532;-84
2022/01/10 08:55:18;;;;;;;34.83;23.77;;;2.00;99.90;;;;;;5094024;28;20170;-83
2022/01/10 08:57:44;;;;;;;34.00;23.67;;;2.00;99.90;;;;;;5093957;28;20540;-84
2022/01/10 09:00:10;;;;;;;29.63;22.00;;;2.10;99.90;;;;;;5093985;28;20223;-84
2022/01/10 09:02:37;;;;;;;33.77;22.73;;;2.00;99.90;;;;;;5075760;28;20181;-84
2022/01/10 09:05:05;;;;;;;28.97;20.50;;;2.10;99.90;;;;;;5094171;28;20169;-83
2022/01/10 09:07:31;;;;;;;30.30;22.23;;;2.30;99.90;;;;;;5093785;28;20265;-83
2022/01/10 09:09:58;;;;;;;35.13;23.27;;;2.50;99.90;;;;;;5094143;28;20186;-83
2022/01/10 09:12:24;;;;;;;34.10;24.40;;;2.50;99.90;;;;;;5093776;28;20172;-83
2022/01/10 09:14:50;;;;;;;34.17;23.07;;;2.60;99.90;;;;;;5094231;28;20187;-83
2022/01/10 09:17:16;;;;;;;31.30;21.70;;;2.70;99.90;;;;;;5094118;28;20182;-82
2022/01/10 09:19:42;;;;;;;35.10;22.03;;;2.70;99.90;;;;;;5093789;28;20169;-83
2022/01/10 09:22:08;;;;;;;32.10;22.27;;;2.70;99.90;;;;;;5093769;28;20181;-83
2022/01/10 09:24:34;;;;;;;29.67;21.70;;;2.80;99.90;;;;;;5093822;28;20200;-82
2022/01/10 09:27:00;;;;;;;31.77;22.03;;;2.90;99.90;;;;;;5075593;28;20662;-83
2022/01/10 09:29:26;;;;;;;30.07;21.50;;;3.00;99.90;;;;;;5075683;28;20179;-82
2022/01/10 09:31:52;;;;;;;34.07;21.73;;;3.10;99.90;;;;;;5093724;28;20171;-83
2022/01/10 09:34:18;;;;;;;35.90;22.33;;;3.10;99.90;;;;;;5093373;28;20633;-81
2022/01/10 09:36:44;;;;;;;32.27;22.37;;;3.20;99.90;;;;;;5093236;28;20300;-82
2022/01/10 09:39:11;;;;;;;32.63;23.80;;;3.30;99.90;;;;;;5093511;28;20205;-82
2022/01/10 09:41:37;;;;;;;36.17;23.47;;;3.50;99.90;;;;;;5093540;28;20181;-81
2022/01/10 09:44:06;;;;;;;39.60;23.97;;;3.60;99.90;;;;;;5075339;28;20670;-83
2022/01/10 09:46:33;;;;;;;34.27;23.57;;;3.60;99.90;;;;;;5093590;28;20177;-82
2022/01/10 09:49:01;;;;;;;32.60;24.10;;;3.70;99.90;;;;;;5076240;28;20204;-82
2022/01/10 09:51:28;;;;;;;32.40;22.30;;;3.80;99.90;;;;;;5094816;28;20169;-82
2022/01/10 09:53:59;;;;;;;33.30;22.03;;;3.90;99.90;;;;;;5094062;28;20181;-83
2022/01/10 09:56:27;;;;;;;29.27;22.63;;;3.90;99.90;;;;;;5093247;28;20173;-82
2022/01/10 09:58:53;;;;;;;36.50;24.27;;;4.00;99.90;;;;;;5093044;28;20210;-82
2022/01/10 10:01:20;;;;;;;30.40;22.10;;;4.10;99.90;;;;;;5092909;28;20178;-82
2022/01/10 10:03:48;;;;;;;32.73;22.63;;;4.20;99.90;;;;;;5094391;28;20174;-81
2022/01/10 10:06:15;;;;;;;33.90;23.30;;;4.20;99.90;;;;;;5096790;28;20193;-82
2022/01/10 10:08:42;;;;;;;37.47;23.10;;;4.30;99.90;;;;;;5097212;28;20174;-83
2022/01/10 10:11:11;;;;;;;31.37;22.80;;;4.50;99.90;;;;;;5078346;28;20648;-82
2022/01/10 10:13:55;;;;;;;31.03;21.37;;;4.40;99.90;;;;;;5096552;28;20170;-82
2022/01/10 10:16:22;;;;;;;32.47;21.23;;;4.50;99.90;;;;;;5097171;28;20257;-82
2022/01/10 10:18:49;;;;;;;28.60;22.17;;;4.50;99.90;;;;;;5096419;28;20625;-82
2022/01/10 10:21:17;;;;;;;32.90;20.07;;;4.60;99.90;;;;;;5096483;28;20169;-82
2022/01/10 10:23:48;;;;;;;28.00;19.90;;;4.60;99.90;;;;;;5096553;28;20707;-81
2022/01/10 10:26:19;;;;;;;27.87;20.10;;;4.70;99.90;;;;;;5096659;28;20163;-82
2022/01/10 10:28:47;;;;;;;29.10;21.23;;;4.70;99.90;;;;;;5096969;28;20586;-82
2022/01/10 10:31:22;;;;;;;33.77;20.80;;;4.80;99.90;;;;;;5096209;28;20175;-82
2022/01/10 10:33:50;;;;;;;28.77;21.90;;;4.80;99.90;;;;;;5096270;28;20181;-82
2022/01/10 10:36:16;;;;;;;30.03;22.03;;;4.90;99.90;;;;;;5095954;28;20231;-83
2022/01/10 10:38:42;;;;;;;30.30;22.40;;;4.90;99.90;;;;;;5096048;28;20701;-82
2022/01/10 10:41:08;;;;;;;30.60;23.07;;;5.00;99.90;;;;;;5096056;28;20250;-82
2022/01/10 10:43:36;;;;;;;31.83;22.60;;;5.00;99.90;;;;;;5096074;28;20660;-82
2022/01/10 10:46:08;;;;;;;31.97;23.93;;;5.10;99.90;;;;;;5096027;28;20695;-82
2022/01/10 10:48:37;;;;;;;35.33;23.60;;;5.10;99.80;;;;;;5096030;28;20240;-82
2022/01/10 10:51:03;;;;;;;32.53;23.10;;;5.20;99.60;;;;;;5095817;28;20185;-81
2022/01/10 10:53:32;;;;;;;33.27;22.47;;;5.20;99.70;;;;;;5078025;28;20174;-82
2022/01/10 10:56:01;;;;;;;36.77;23.00;;;5.20;99.80;;;;;;5095915;28;20178;-82
2022/01/10 10:58:28;;;;;;;31.83;23.20;;;5.20;99.60;;;;;;5095868;28;20674;-82
2022/01/10 11:00:55;;;;;;;29.03;22.03;;;5.20;99.50;;;;;;5077550;28;20179;-82
2022/01/10 11:03:22;;;;;;;34.97;24.90;;;5.20;99.70;;;;;;5095700;28;20190;-82
2022/01/10 11:05:49;;;;;;;34.77;22.90;;;5.10;99.60;;;;;;5095859;28;20529;-82
2022/01/10 11:08:16;;;;;;;33.33;23.30;;;5.10;99.60;;;;;;5096180;28;20178;-81
2022/01/10 11:10:42;;;;;;;31.87;23.03;;;5.00;99.80;;;;;;5095515;28;20180;-82
2022/01/10 11:13:09;;;;;;;34.43;22.13;;;5.00;99.90;;;;;;5095725;28;20171;-82
2022/01/10 11:15:40;;;;;;;30.40;20.57;;;4.90;99.60;;;;;;5094479;28;20535;-81
2022/01/10 11:18:08;;;;;;;28.63;19.87;;;4.90;99.80;;;;;;5077100;28;20209;-81
2022/01/10 11:20:44;;;;;;;37.63;19.67;;;4.90;99.90;;;;;;5095349;28;20212;-82
2022/01/10 11:23:11;;;;;;;26.10;19.53;;;4.90;99.90;;;;;;5095671;28;20212;-82
2022/01/10 11:25:40;;;;;;;30.93;20.70;;;4.90;99.90;;;;;;5095255;28;20166;-82
2022/01/10 11:28:08;;;;;;;25.20;19.17;;;4.80;99.90;;;;;;5095122;28;20163;-82
2022/01/10 11:30:38;;;;;;;28.00;19.00;;;4.90;99.50;;;;;;5095170;28;20175;-81
2022/01/10 11:33:10;;;;;;;31.90;20.97;;;4.90;99.80;;;;;;5095031;28;20172;-83
2022/01/10 11:35:43;;;;;;;27.67;19.70;;;4.90;99.50;;;;;;5073329;28;20230;-82
2022/01/10 11:38:23;;;;;;;29.30;20.73;;;4.90;99.90;;;;;;5074702;28;20195;-82
2022/01/10 11:41:11;;;;;;;32.47;19.87;;;4.80;99.90;;;;;;5075237;28;20564;-82
2022/01/10 11:43:45;;;;;;;36.13;20.47;;;4.80;99.90;;;;;;5076372;28;20190;-82
2022/01/10 11:46:22;;;;;;;28.33;20.13;;;4.90;99.90;;;;;;5073593;28;20171;-82
2022/01/10 11:48:57;;;;;;;29.47;20.93;;;4.90;99.90;;;;;;5074726;28;20248;-82
2022/01/10 11:51:49;;;;;;;91.17;42.10;;;4.90;99.90;;;;;;5074406;28;20198;-82
2022/01/10 11:54:30;;;;;;;32.03;23.17;;;5.20;99.90;;;;;;5073285;28;20175;-83
2022/01/10 11:57:05;;;;;;;29.37;20.73;;;5.30;99.90;;;;;;5074871;28;20177;-82
2022/01/10 11:59:35;;;;;;;30.07;20.63;;;5.40;99.80;;;;;;5074439;28;20197;-82
2022/01/10 12:02:10;;;;;;;29.03;20.20;;;5.40;99.40;;;;;;5074370;28;20634;-82
2022/01/10 12:04:42;;;;;;;28.97;20.27;;;5.40;99.50;;;;;;5074128;28;20642;-81
2022/01/10 12:07:10;;;;;;;28.03;20.60;;;5.40;99.60;;;;;;5074630;28;20218;-82
2022/01/10 12:09:39;;;;;;;34.87;22.77;;;5.30;99.90;;;;;;5074775;28;20257;-83
2022/01/10 12:12:07;;;;;;;32.83;21.67;;;5.20;99.90;;;;;;5073952;28;20178;-83
2022/01/10 12:14:33;;;;;;;34.03;22.00;;;5.30;99.90;;;;;;5074440;28;20182;-82
2022/01/10 12:17:02;;;;;;;32.57;21.47;;;5.20;99.90;;;;;;5073795;28;20169;-83
2022/01/10 12:19:29;;;;;;;34.70;25.50;;;5.20;99.90;;;;;;5072528;28;20437;-81
2022/01/10 12:21:55;;;;;;;32.13;22.43;;;5.20;99.90;;;;;;5073795;28;20410;-82
2022/01/10 12:24:22;;;;;;;29.17;22.03;;;5.20;99.90;;;;;;5073991;28;20178;-81
2022/01/10 12:26:48;;;;;;;28.47;21.80;;;5.10;99.80;;;;;;5074328;28;20197;-81
2022/01/10 12:29:15;;;;;;;33.23;22.87;;;5.10;99.90;;;;;;5073825;28;20173;-82
2022/01/10 12:31:44;;;;;;;33.17;21.70;;;5.00;99.90;;;;;;5074062;28;20171;-83
2022/01/10 12:34:11;;;;;;;33.57;22.20;;;5.00;99.90;;;;;;5072549;28;20223;-82
2022/01/10 12:36:39;;;;;;;27.47;20.37;;;5.10;99.90;;;;;;5072453;28;20232;-82
2022/01/10 12:39:24;;;;;;;32.30;20.60;;;5.10;99.90;;;;;;5073268;28;20221;-82
2022/01/10 12:41:51;;;;;;;27.80;19.60;;;5.10;99.90;;;;;;5073182;28;20631;-82